createdAt,value
2022-10-15T00:00:39.894Z,3.63
2022-10-15T00:03:06.763Z,3.30
2022-10-15T00:05:33.106Z,3.20
2022-10-15T00:07:59.580Z,3.50
2022-10-15T00:10:25.976Z,3.40
2022-10-15T00:12:52.339Z,3.60
2022-10-15T00:15:18.834Z,3.20
2022-10-15T00:17:45.140Z,3.77
2022-10-15T00:20:12.122Z,3.60
2022-10-15T00:22:38.872Z,3.20
2022-10-15T00:25:06.374Z,3.50
2022-10-15T00:27:34.080Z,3.60
2022-10-15T00:30:00.658Z,3.40
2022-10-15T00:32:27.039Z,3.73
2022-10-15T00:34:53.387Z,3.90
2022-10-15T00:37:20.955Z,4.00
2022-10-15T00:39:47.342Z,4.10
2022-10-15T00:42:14.110Z,4.83
2022-10-15T00:44:47.570Z,4.90
2022-10-15T00:47:38.916Z,5.03
2022-10-15T00:50:16.960Z,4.80
2022-10-15T00:52:49.425Z,4.93
2022-10-15T00:55:24.684Z,4.80
2022-10-15T00:57:51.601Z,5.00
2022-10-15T01:00:18.587Z,5.20
2022-10-15T01:02:45.919Z,5.30
2022-10-15T01:05:15.654Z,5.20
2022-10-15T01:07:42.084Z,5.57
2022-10-15T01:10:10.811Z,4.97
2022-10-15T01:12:57.091Z,4.87
2022-10-15T01:15:37.485Z,5.60
2022-10-15T01:18:12.269Z,5.63
2022-10-15T01:20:53.831Z,5.73
2022-10-15T01:23:41.923Z,5.73
2022-10-15T01:26:41.846Z,5.20
2022-10-15T01:29:22.723Z,5.03
2022-10-15T01:32:07.951Z,4.90
2022-10-15T01:34:56.349Z,5.40
2022-10-15T01:37:59.714Z,5.83
2022-10-15T01:40:34.367Z,5.17
2022-10-15T01:43:04.301Z,5.27
2022-10-15T01:45:58.238Z,5.90
2022-10-15T01:48:28.549Z,5.47
2022-10-15T01:51:00.087Z,5.00
2022-10-15T01:53:28.059Z,5.50
2022-10-15T01:55:58.323Z,5.57
2022-10-15T01:58:26.063Z,5.33
2022-10-15T02:00:55.870Z,5.37
2022-10-15T02:03:22.445Z,5.37
2022-10-15T02:06:00.451Z,5.87
2022-10-15T02:09:08.581Z,5.53
2022-10-15T02:11:50.615Z,5.40
2022-10-15T02:14:27.742Z,6.07
2022-10-15T02:17:06.563Z,6.13
2022-10-15T02:19:48.255Z,5.63
2022-10-15T02:22:18.694Z,5.33
2022-10-15T02:24:55.568Z,5.77
2022-10-15T02:27:23.384Z,5.53
2022-10-15T02:29:52.733Z,6.03
2022-10-15T02:32:22.252Z,5.57
2022-10-15T02:34:51.327Z,5.57
2022-10-15T02:37:21.501Z,5.73
2022-10-15T02:39:48.136Z,5.40
2022-10-15T02:42:17.553Z,6.00
2022-10-15T02:44:44.061Z,5.97
2022-10-15T02:47:11.257Z,5.57
2022-10-15T02:49:37.761Z,5.57
2022-10-15T02:52:04.890Z,5.90
2022-10-15T02:54:31.258Z,5.63
2022-10-15T02:56:57.566Z,5.43
2022-10-15T02:59:24.101Z,6.00
2022-10-15T03:01:50.449Z,5.33
2022-10-15T03:04:16.798Z,6.30
2022-10-15T03:06:43.290Z,5.70
2022-10-15T03:09:09.703Z,6.00
2022-10-15T03:11:38.392Z,5.97
2022-10-15T03:14:04.978Z,5.40
2022-10-15T03:16:31.307Z,5.73
2022-10-15T03:18:57.669Z,6.00
2022-10-15T03:21:24.156Z,5.53
2022-10-15T03:23:50.498Z,5.77
2022-10-15T03:26:16.888Z,5.03
2022-10-15T03:28:43.262Z,5.57
2022-10-15T03:31:09.767Z,5.80
2022-10-15T03:33:36.271Z,5.53
2022-10-15T03:36:02.740Z,5.33
2022-10-15T03:38:29.087Z,5.90
2022-10-15T03:40:55.433Z,5.70
2022-10-15T03:43:25.326Z,6.10
2022-10-15T03:45:52.717Z,6.00
2022-10-15T03:48:19.625Z,5.93
2022-10-15T03:50:46.714Z,6.30
2022-10-15T03:53:13.363Z,5.83
2022-10-15T03:55:39.693Z,6.27
2022-10-15T03:58:06.094Z,7.27
2022-10-15T04:00:32.422Z,7.10
2022-10-15T04:02:58.770Z,6.77
2022-10-15T04:05:25.317Z,6.30
2022-10-15T04:07:51.719Z,7.93
2022-10-15T04:10:18.102Z,7.33
2022-10-15T04:12:44.515Z,8.10
2022-10-15T04:15:11.038Z,8.50
2022-10-15T04:17:37.423Z,8.57
2022-10-15T04:20:05.035Z,8.33
2022-10-15T04:22:31.394Z,8.83
2022-10-15T04:24:57.696Z,8.50
2022-10-15T04:27:24.111Z,8.83
2022-10-15T04:29:50.606Z,9.57
2022-10-15T04:32:17.010Z,9.70
2022-10-15T04:34:45.587Z,10.43
2022-10-15T04:37:12.198Z,10.27
2022-10-15T04:39:38.736Z,9.57
2022-10-15T04:42:05.236Z,9.23
2022-10-15T04:44:31.607Z,9.83
2022-10-15T04:46:58.254Z,10.00
2022-10-15T04:49:24.692Z,10.40
2022-10-15T04:51:51.003Z,10.17
2022-10-15T04:54:17.471Z,10.13
2022-10-15T04:56:43.871Z,10.70
2022-10-15T04:59:10.370Z,10.77
2022-10-15T05:01:36.775Z,10.27
2022-10-15T05:04:03.195Z,12.57
2022-10-15T05:06:29.574Z,10.37
2022-10-15T05:08:56.045Z,10.77
2022-10-15T05:11:25.049Z,11.27
2022-10-15T05:13:52.281Z,10.63
2022-10-15T05:16:24.525Z,11.20
2022-10-15T05:18:53.202Z,11.20
2022-10-15T05:21:20.112Z,11.43
2022-10-15T05:23:47.340Z,10.67
2022-10-15T05:26:17.095Z,10.60
2022-10-15T05:28:43.750Z,11.03
2022-10-15T05:31:19.084Z,10.43
2022-10-15T05:33:50.215Z,10.10
2022-10-15T05:36:21.203Z,10.23
2022-10-15T05:38:50.261Z,10.50
2022-10-15T05:41:17.041Z,10.30
2022-10-15T05:43:46.254Z,9.93
2022-10-15T05:46:12.675Z,9.87
2022-10-15T05:48:39.264Z,9.20
2022-10-15T05:51:08.458Z,8.77
2022-10-15T05:53:34.872Z,8.73
2022-10-15T05:56:01.495Z,8.30
2022-10-15T06:03:49.221Z,7.43
2022-10-15T06:06:26.588Z,8.87
2022-10-15T06:08:54.340Z,7.37
2022-10-15T06:11:21.006Z,7.30
2022-10-15T06:13:47.792Z,7.20
2022-10-15T06:16:19.382Z,6.40
2022-10-15T06:18:49.492Z,6.30
2022-10-15T06:21:15.826Z,6.43
2022-10-15T06:23:42.151Z,6.23
2022-10-15T06:26:10.131Z,6.00
2022-10-15T06:28:37.610Z,5.13
2022-10-15T06:31:05.026Z,5.90
2022-10-15T06:33:32.149Z,5.20
2022-10-15T06:36:09.874Z,6.17
2022-10-15T06:38:36.918Z,5.80
2022-10-15T06:41:07.875Z,5.70
2022-10-15T06:43:35.586Z,5.47
2022-10-15T06:46:04.093Z,5.83
2022-10-15T06:48:30.458Z,5.40
2022-10-15T06:50:58.930Z,5.70
2022-10-15T06:53:25.327Z,5.43
2022-10-15T06:55:51.673Z,5.77
2022-10-15T06:58:18.010Z,5.00
2022-10-15T07:00:44.453Z,5.07
2022-10-15T07:03:10.747Z,4.73
2022-10-15T07:05:37.055Z,4.53
2022-10-15T07:08:03.705Z,4.53
2022-10-15T07:10:30.210Z,5.07
2022-10-15T07:13:00.249Z,4.63
2022-10-15T07:15:27.193Z,4.00
2022-10-15T07:18:01.379Z,4.27
2022-10-15T07:20:31.598Z,4.60
2022-10-15T07:22:59.949Z,4.07
2022-10-15T07:25:27.514Z,3.60
2022-10-15T07:27:55.368Z,3.50
2022-10-15T07:30:23.568Z,3.77
2022-10-15T07:32:50.329Z,3.93
2022-10-15T07:35:17.060Z,3.70
2022-10-15T07:37:43.427Z,3.40
2022-10-15T07:40:10.451Z,3.87
2022-10-15T07:42:36.767Z,3.30
2022-10-15T07:45:03.581Z,2.97
2022-10-15T07:47:29.993Z,2.80
2022-10-15T07:49:56.442Z,2.90
2022-10-15T07:52:22.905Z,2.70
2022-10-15T07:54:49.416Z,2.73
2022-10-15T07:57:17.117Z,2.73
2022-10-15T07:59:43.486Z,2.27
2022-10-15T08:02:17.398Z,2.00
2022-10-15T08:04:43.737Z,2.27
2022-10-15T08:07:10.432Z,1.93
2022-10-15T08:09:37.139Z,1.77
2022-10-15T08:12:03.783Z,1.97
2022-10-15T08:14:30.282Z,1.90
2022-10-15T08:16:56.595Z,1.70
2022-10-15T08:19:23.057Z,1.80
2022-10-15T08:21:49.372Z,1.40
2022-10-15T08:24:15.747Z,1.50
2022-10-15T08:26:42.189Z,1.40
2022-10-15T08:29:13.885Z,1.37
2022-10-15T08:31:40.246Z,1.17
2022-10-15T08:34:07.028Z,1.40
2022-10-15T08:36:33.720Z,1.40
2022-10-15T08:39:00.094Z,1.23
2022-10-15T08:41:38.593Z,1.23
2022-10-15T08:44:05.966Z,1.20
2022-10-15T08:46:43.828Z,1.10
2022-10-15T08:49:24.805Z,1.30
2022-10-15T08:51:58.764Z,1.00
2022-10-15T08:54:25.285Z,1.30
2022-10-15T08:57:06.791Z,1.00
2022-10-15T08:59:44.780Z,1.00
2022-10-15T09:02:20.409Z,0.90
2022-10-15T09:04:58.862Z,1.00
2022-10-15T09:07:48.684Z,1.07
2022-10-15T09:10:57.570Z,0.90
2022-10-15T09:13:30.639Z,1.00
2022-10-15T09:16:03.314Z,1.10
2022-10-15T09:18:33.607Z,0.90
2022-10-15T09:21:02.304Z,1.00
2022-10-15T09:23:32.019Z,0.80
2022-10-15T09:26:01.388Z,0.80
2022-10-15T09:28:38.693Z,1.20
2022-10-15T09:31:09.934Z,0.90
2022-10-15T09:33:52.450Z,0.90
2022-10-15T09:36:34.927Z,0.90
2022-10-15T09:39:21.673Z,1.00
2022-10-15T09:42:16.350Z,0.87
2022-10-15T09:44:45.756Z,0.70
2022-10-15T09:47:22.442Z,1.00
2022-10-15T09:49:49.102Z,0.87
2022-10-15T09:52:27.810Z,1.70
2022-10-15T09:55:20.753Z,0.87
2022-10-15T09:57:51.555Z,1.13
2022-10-15T10:00:17.993Z,1.00
2022-10-15T10:02:44.422Z,1.03
2022-10-15T10:05:31.675Z,0.90
2022-10-15T10:08:16.508Z,1.07
2022-10-15T10:10:46.031Z,0.97
2022-10-15T10:13:26.037Z,1.20
2022-10-15T10:15:58.322Z,0.90
2022-10-15T10:18:26.203Z,1.10
2022-10-15T10:20:59.031Z,1.37
2022-10-15T10:23:45.776Z,0.97
2022-10-15T10:26:13.090Z,1.10
2022-10-15T10:28:56.825Z,1.20
2022-10-15T10:31:33.523Z,1.30
2022-10-15T10:34:03.962Z,1.37
2022-10-15T10:36:39.395Z,1.10
2022-10-15T10:39:14.889Z,1.40
2022-10-15T10:41:48.738Z,0.90
2022-10-15T10:44:41.883Z,1.10
2022-10-15T10:47:08.134Z,0.90
2022-10-15T10:49:40.550Z,1.00
2022-10-15T10:52:24.088Z,0.80
2022-10-15T10:55:12.161Z,0.90
2022-10-15T10:57:59.955Z,0.90
2022-10-15T11:00:32.698Z,0.90
2022-10-15T11:02:59.304Z,0.80
2022-10-15T11:05:28.777Z,0.90
2022-10-15T11:08:16.804Z,0.70
2022-10-15T11:10:57.137Z,0.80
2022-10-15T11:13:35.557Z,0.73
2022-10-15T11:16:15.511Z,0.67
2022-10-15T11:19:03.524Z,0.70
2022-10-15T11:21:48.670Z,0.80
2022-10-15T11:24:26.020Z,1.00
2022-10-15T11:27:17.068Z,0.87
2022-10-15T11:29:52.341Z,0.87
2022-10-15T11:32:28.447Z,1.00
2022-10-15T11:35:16.942Z,0.83
2022-10-15T11:38:19.252Z,0.60
2022-10-15T11:40:45.662Z,0.80
2022-10-15T11:43:26.696Z,0.90
2022-10-15T11:46:09.381Z,0.70
2022-10-15T11:49:37.458Z,4.00
2022-10-15T11:52:45.789Z,0.80
2022-10-15T11:55:40.232Z,0.80
2022-10-15T11:58:16.833Z,1.00
2022-10-15T12:00:50.213Z,1.00
2022-10-15T12:03:25.591Z,0.80
2022-10-15T12:06:00.821Z,0.63
2022-10-15T12:08:33.551Z,0.70
2022-10-15T12:11:41.933Z,0.70
2022-10-15T12:14:27.968Z,0.60
2022-10-15T12:17:15.660Z,0.40
2022-10-15T12:19:50.438Z,0.60
2022-10-15T12:22:34.334Z,0.60
2022-10-15T12:25:01.409Z,0.60
2022-10-15T12:27:36.471Z,0.60
2022-10-15T12:30:02.904Z,0.70
2022-10-15T12:32:36.993Z,0.50
2022-10-15T12:35:07.198Z,0.70
2022-10-15T12:37:36.032Z,0.80
2022-10-15T12:40:06.999Z,0.70
2022-10-15T12:42:39.492Z,0.60
2022-10-15T12:45:18.620Z,0.53
2022-10-15T12:48:03.626Z,0.60
2022-10-15T12:50:32.795Z,0.70
2022-10-15T12:53:02.098Z,0.73
2022-10-15T12:55:39.535Z,0.70
2022-10-15T12:58:33.924Z,0.60
2022-10-15T13:01:15.699Z,0.60
2022-10-15T13:03:53.624Z,0.60
2022-10-15T13:06:30.307Z,0.63
2022-10-15T13:09:16.713Z,0.53
2022-10-15T13:11:55.046Z,0.60
2022-10-15T13:14:21.362Z,0.60
2022-10-15T13:16:48.652Z,0.57
2022-10-15T13:19:25.104Z,0.60
2022-10-15T13:21:58.009Z,0.70
2022-10-15T13:24:28.213Z,0.70
2022-10-15T13:26:57.466Z,2.30
2022-10-15T13:29:26.601Z,1.30
2022-10-15T13:31:55.616Z,1.00
2022-10-15T13:34:22.115Z,1.20
2022-10-15T13:36:49.970Z,0.93
2022-10-15T13:39:37.557Z,0.80
2022-10-15T13:42:08.303Z,0.70
2022-10-15T13:44:35.174Z,0.80
2022-10-15T13:47:02.164Z,0.90
2022-10-15T13:49:29.042Z,0.90
2022-10-15T13:51:56.125Z,0.90
2022-10-15T13:54:31.366Z,1.07
2022-10-15T13:57:00.067Z,1.37
2022-10-15T13:59:29.342Z,0.90
2022-10-15T14:02:01.881Z,0.90
2022-10-15T14:04:30.421Z,0.73
2022-10-15T14:07:02.804Z,0.90
2022-10-15T14:09:35.734Z,0.90
2022-10-15T14:12:04.557Z,1.00
2022-10-15T14:14:46.866Z,0.80
2022-10-15T14:17:23.145Z,0.63
2022-10-15T14:20:14.800Z,1.00
2022-10-15T14:22:48.010Z,1.00
2022-10-15T14:25:22.280Z,0.80
2022-10-15T14:27:48.758Z,0.80
2022-10-15T14:30:24.277Z,0.70
2022-10-15T14:32:53.902Z,0.70
2022-10-15T14:35:35.561Z,0.77
2022-10-15T14:38:16.226Z,0.83
2022-10-15T14:41:06.293Z,0.80
2022-10-15T14:43:36.679Z,0.90
2022-10-15T14:46:07.312Z,0.90
2022-10-15T14:48:40.480Z,0.70
2022-10-15T14:51:17.549Z,0.73
2022-10-15T14:53:46.648Z,0.70
2022-10-15T14:56:18.880Z,0.70
2022-10-15T14:58:52.334Z,0.70
2022-10-15T15:01:20.638Z,0.80
2022-10-15T15:03:50.451Z,1.20
2022-10-15T15:06:17.298Z,0.80
2022-10-15T15:08:43.980Z,0.90
2022-10-15T15:11:18.394Z,0.80
2022-10-15T15:13:46.022Z,0.97
2022-10-15T15:16:14.989Z,0.80
2022-10-15T15:18:43.821Z,0.90
2022-10-15T15:21:14.369Z,0.90
2022-10-15T15:23:41.902Z,1.03
2022-10-15T15:26:08.238Z,0.80
2022-10-15T15:28:34.773Z,0.90
2022-10-15T15:31:06.225Z,1.60
2022-10-15T15:33:33.230Z,1.30
2022-10-15T15:36:23.295Z,1.20
2022-10-15T15:38:50.386Z,1.10
2022-10-15T15:41:22.154Z,1.10
2022-10-15T15:43:49.521Z,1.40
2022-10-15T15:46:16.485Z,1.60
2022-10-15T15:48:43.265Z,1.70
2022-10-15T15:51:25.493Z,1.50
2022-10-15T15:53:52.055Z,1.50
2022-10-15T15:56:18.602Z,1.67
2022-10-15T15:58:45.542Z,1.43
2022-10-15T16:01:12.126Z,1.70
2022-10-15T16:03:38.449Z,1.60
2022-10-15T16:06:07.040Z,1.20
2022-10-15T16:08:35.381Z,1.90
2022-10-15T16:11:03.208Z,1.97
2022-10-15T16:13:30.074Z,2.50
2022-10-15T16:15:56.621Z,2.80
2022-10-15T16:18:22.988Z,2.70
2022-10-15T16:20:50.180Z,3.00
2022-10-15T16:23:17.006Z,2.60
2022-10-15T16:25:43.406Z,2.80
2022-10-15T16:28:09.809Z,2.87
2022-10-15T16:30:36.248Z,3.30
2022-10-15T16:33:02.619Z,2.27
2022-10-15T16:35:29.093Z,1.87
2022-10-15T16:37:56.141Z,1.63
2022-10-15T16:40:22.920Z,1.77
2022-10-15T16:42:49.399Z,2.43
2022-10-15T16:45:15.900Z,2.30
2022-10-15T16:47:42.248Z,2.27
2022-10-15T16:50:09.193Z,2.13
2022-10-15T16:52:35.537Z,2.10
2022-10-15T16:55:01.875Z,2.23
2022-10-15T16:57:28.237Z,2.23
2022-10-15T16:59:54.586Z,2.30
2022-10-15T17:02:20.892Z,2.13
2022-10-15T17:04:47.265Z,2.23
2022-10-15T17:07:14.115Z,1.80
2022-10-15T17:09:40.564Z,2.10
2022-10-15T17:12:06.973Z,1.70
2022-10-15T17:14:33.282Z,1.80
2022-10-15T17:16:59.617Z,1.67
2022-10-15T17:19:29.093Z,1.40
2022-10-15T17:21:58.284Z,1.50
2022-10-15T17:24:24.613Z,1.80
2022-10-15T17:26:51.010Z,1.43
2022-10-15T17:29:26.556Z,2.10
2022-10-15T17:31:55.894Z,1.40
2022-10-15T17:34:22.246Z,1.73
2022-10-15T17:36:49.449Z,1.67
2022-10-15T17:39:18.566Z,1.53
2022-10-15T17:41:45.227Z,1.50
2022-10-15T17:44:12.232Z,1.80
2022-10-15T17:46:39.477Z,1.63
2022-10-15T17:49:06.315Z,1.40
2022-10-15T17:51:33.120Z,2.07
2022-10-15T17:54:00.720Z,1.23
2022-10-15T17:56:30.105Z,1.83
2022-10-15T17:58:57.753Z,1.80
2022-10-15T18:04:22.625Z,1.43
2022-10-15T18:06:49.081Z,1.70
2022-10-15T18:09:15.533Z,1.83
2022-10-15T18:11:41.938Z,1.77
2022-10-15T18:14:08.371Z,1.83
2022-10-15T18:16:34.757Z,1.90
2022-10-15T18:19:01.239Z,2.00
2022-10-15T18:21:28.421Z,1.90
2022-10-15T18:23:56.753Z,1.87
2022-10-15T18:26:23.465Z,1.93
2022-10-15T18:28:51.813Z,2.47
2022-10-15T18:31:18.837Z,1.90
2022-10-15T18:33:48.166Z,2.20
2022-10-15T18:36:17.564Z,1.90
2022-10-15T18:38:44.128Z,1.60
2022-10-15T18:41:15.768Z,1.80
2022-10-15T18:43:42.088Z,2.03
2022-10-15T18:46:08.772Z,1.87
2022-10-15T18:48:37.148Z,1.60
2022-10-15T18:51:09.191Z,3.03
2022-10-15T18:53:37.417Z,1.90
2022-10-15T18:56:05.533Z,1.90
2022-10-15T18:58:32.460Z,2.17
2022-10-15T19:01:29.000Z,1.73
2022-10-15T19:03:56.821Z,1.80
2022-10-15T19:06:26.658Z,2.03
2022-10-15T19:11:20.341Z,2.07
2022-10-15T19:13:46.825Z,2.33
2022-10-15T19:16:13.189Z,2.13
2022-10-15T19:18:39.637Z,1.90
2022-10-15T19:21:06.172Z,2.10
2022-10-15T19:23:33.406Z,2.33
2022-10-15T19:26:00.330Z,2.30
2022-10-15T19:28:27.499Z,2.10
2022-10-15T19:30:58.737Z,2.60
2022-10-15T19:33:28.998Z,2.40
2022-10-15T19:35:58.997Z,3.50
2022-10-15T19:38:26.369Z,3.20
2022-10-15T19:40:53.931Z,3.00
2022-10-15T19:43:22.239Z,3.23
2022-10-15T19:45:48.985Z,3.13
2022-10-15T19:48:19.142Z,3.30
2022-10-15T19:50:47.171Z,2.97
2022-10-15T19:53:16.386Z,3.20
2022-10-15T19:55:54.472Z,3.03
2022-10-15T19:58:20.968Z,3.13
2022-10-15T20:00:53.862Z,2.40
2022-10-15T20:03:21.805Z,2.80
2022-10-15T20:05:48.573Z,2.90
2022-10-15T20:08:15.713Z,3.00
2022-10-15T20:10:44.544Z,3.00
2022-10-15T20:13:12.501Z,2.93
2022-10-15T20:15:46.751Z,3.20
2022-10-15T20:18:13.987Z,3.50
2022-10-15T20:20:45.557Z,2.40
2022-10-15T20:23:14.523Z,2.33
2022-10-15T20:25:43.225Z,2.40
2022-10-15T20:28:14.611Z,2.60
2022-10-15T20:30:41.493Z,2.30
2022-10-15T20:33:08.836Z,2.90
2022-10-15T20:35:36.102Z,2.70
2022-10-15T20:38:03.416Z,2.30
2022-10-15T20:40:31.203Z,2.70
2022-10-15T20:42:57.586Z,2.50
2022-10-15T20:45:28.832Z,2.83
2022-10-15T20:47:55.240Z,2.60
2022-10-15T20:50:26.349Z,2.43
2022-10-15T20:52:54.689Z,3.00
2022-10-15T20:55:21.203Z,2.53
2022-10-15T20:57:47.853Z,2.60
2022-10-15T21:00:14.485Z,2.80
2022-10-15T21:02:41.635Z,3.03
2022-10-15T21:05:08.421Z,2.83
2022-10-15T21:07:34.875Z,2.60
2022-10-15T21:10:01.305Z,2.57
2022-10-15T21:12:28.064Z,2.83
2022-10-15T21:14:54.922Z,2.50
2022-10-15T21:17:21.282Z,2.43
2022-10-15T21:19:50.387Z,2.73
2022-10-15T21:22:19.321Z,2.80
2022-10-15T21:24:45.669Z,2.43
2022-10-15T21:27:12.021Z,2.80
2022-10-15T21:29:38.834Z,2.57
2022-10-15T21:32:05.503Z,2.90
2022-10-15T21:34:31.862Z,3.17
2022-10-15T21:36:58.415Z,3.43
2022-10-15T21:39:24.812Z,2.93
2022-10-15T21:41:51.364Z,3.30
2022-10-15T21:44:17.784Z,3.20
2022-10-15T21:46:44.152Z,2.70
2022-10-15T21:49:10.517Z,3.07
2022-10-15T21:51:38.026Z,3.47
2022-10-15T21:54:06.177Z,3.47
2022-10-15T21:56:33.196Z,3.13
2022-10-15T21:58:59.721Z,3.20
2022-10-15T22:01:28.893Z,3.20
2022-10-15T22:04:00.010Z,3.20
2022-10-15T22:06:26.954Z,3.13
2022-10-15T22:08:53.943Z,3.07
2022-10-15T22:11:29.387Z,3.03
2022-10-15T22:13:58.944Z,3.07
2022-10-15T22:16:26.969Z,2.90
2022-10-15T22:18:53.598Z,3.10
2022-10-15T22:21:23.253Z,2.90
2022-10-15T22:23:55.541Z,3.03
2022-10-15T22:26:24.789Z,3.30
2022-10-15T22:28:59.459Z,3.10
2022-10-15T22:31:26.985Z,2.93
2022-10-15T22:33:53.339Z,3.37
2022-10-15T22:36:25.249Z,3.33
2022-10-15T22:39:01.802Z,3.40
2022-10-15T22:41:30.597Z,3.43
2022-10-15T22:43:57.381Z,3.30
2022-10-15T22:46:24.273Z,2.83
2022-10-15T22:48:50.618Z,3.10
2022-10-15T22:51:17.417Z,3.10
2022-10-15T22:53:43.773Z,3.87
2022-10-15T22:56:18.164Z,4.63
2022-10-15T22:58:45.461Z,4.13
2022-10-15T23:01:21.347Z,4.63
2022-10-15T23:03:57.339Z,4.77
2022-10-15T23:06:24.999Z,4.90
2022-10-15T23:08:51.643Z,4.20
2022-10-15T23:11:23.853Z,3.57
2022-10-15T23:13:59.850Z,2.90
2022-10-15T23:16:31.401Z,2.40
2022-10-15T23:19:00.743Z,2.57
2022-10-15T23:21:41.312Z,2.30
2022-10-15T23:24:08.455Z,2.30
2022-10-15T23:26:34.854Z,2.37
2022-10-15T23:29:03.300Z,2.00
2022-10-15T23:31:32.942Z,2.40
2022-10-15T23:34:00.227Z,2.43
2022-10-15T23:36:28.462Z,2.50
2022-10-15T23:38:57.854Z,2.83
2022-10-15T23:41:25.199Z,2.30
2022-10-15T23:43:51.613Z,2.87
2022-10-15T23:46:18.241Z,2.43
2022-10-15T23:48:45.137Z,2.07
2022-10-15T23:51:21.020Z,2.17
2022-10-15T23:53:48.247Z,2.50
2022-10-15T23:56:14.913Z,2.20
2022-10-15T23:58:41.789Z,2.00
